sensor_id;sensor_type;location;lat;lon;timestamp;temperature;humidity
16301;DHT22;8258;51.020;4.248;2024-03-02T01:05:50;6.10;99.90
16301;DHT22;8258;51.020;4.248;2024-03-02T01:13:43;6.20;99.90
16301;DHT22;8258;51.020;4.248;2024-03-02T01:16:10;6.20;99.90
16301;DHT22;8258;51.020;4.248;2024-03-02T01:18:37;6.20;99.90
16301;DHT22;8258;51.020;4.248;2024-03-02T01:21:06;6.20;99.90
16301;DHT22;8258;51.020;4.248;2024-03-02T01:23:33;6.30;99.90
16301;DHT22;8258;51.020;4.248;2024-03-02T01:26:00;6.30;99.90
16301;DHT22;8258;51.020;4.248;2024-03-02T01:28:27;6.30;99.90
16301;DHT22;8258;51.020;4.248;2024-03-02T01:30:55;6.30;99.90
16301;DHT22;8258;51.020;4.248;2024-03-02T01:33:21;6.30;99.90
16301;DHT22;8258;51.020;4.248;2024-03-02T01:35:48;6.30;99.90
16301;DHT22;8258;51.020;4.248;2024-03-02T01:38:17;6.30;99.90
16301;DHT22;8258;51.020;4.248;2024-03-02T01:40:45;6.40;99.90
16301;DHT22;8258;51.020;4.248;2024-03-02T02:11:52;6.30;99.90
16301;DHT22;8258;51.020;4.248;2024-03-02T02:14:19;6.10;99.90
16301;DHT22;8258;51.020;4.248;2024-03-02T02:16:46;6.10;99.90
16301;DHT22;8258;51.020;4.248;2024-03-02T02:19:13;6.00;99.90
16301;DHT22;8258;51.020;4.248;2024-03-02T02:21:44;6.00;99.90
16301;DHT22;8258;51.020;4.248;2024-03-02T02:24:11;6.10;99.90
16301;DHT22;8258;51.020;4.248;2024-03-02T02:26:38;6.10;99.90
16301;DHT22;8258;51.020;4.248;2024-03-02T02:29:06;6.20;99.90
16301;DHT22;8258;51.020;4.248;2024-03-02T02:31:37;6.30;99.90
16301;DHT22;8258;51.020;4.248;2024-03-02T02:34:04;6.30;99.90
16301;DHT22;8258;51.020;4.248;2024-03-02T03:54:35;6.30;99.90
16301;DHT22;8258;51.020;4.248;2024-03-02T03:57:04;6.20;99.90
16301;DHT22;8258;51.020;4.248;2024-03-02T03:59:31;6.20;99.90
16301;DHT22;8258;51.020;4.248;2024-03-02T04:01:58;6.30;99.90
16301;DHT22;8258;51.020;4.248;2024-03-02T04:45:55;6.10;99.90
16301;DHT22;8258;51.020;4.248;2024-03-02T04:48:22;6.10;99.90
16301;DHT22;8258;51.020;4.248;2024-03-02T04:50:49;6.10;99.90
16301;DHT22;8258;51.020;4.248;2024-03-02T04:53:16;6.00;99.90
16301;DHT22;8258;51.020;4.248;2024-03-02T08:04:38;10.10;99.90
16301;DHT22;8258;51.020;4.248;2024-03-02T08:24:56;10.30;99.90
16301;DHT22;8258;51.020;4.248;2024-03-02T08:27:24;10.30;99.90
16301;DHT22;8258;51.020;4.248;2024-03-02T08:29:51;10.50;99.90
16301;DHT22;8258;51.020;4.248;2024-03-02T08:32:18;10.70;99.90
16301;DHT22;8258;51.020;4.248;2024-03-02T08:34:45;11.00;99.90
16301;DHT22;8258;51.020;4.248;2024-03-02T08:37:13;11.20;99.90
16301;DHT22;8258;51.020;4.248;2024-03-02T08:39:41;11.50;99.90
16301;DHT22;8258;51.020;4.248;2024-03-02T08:42:11;11.50;99.90
16301;DHT22;8258;51.020;4.248;2024-03-02T08:44:38;11.80;99.90
16301;DHT22;8258;51.020;4.248;2024-03-02T08:47:07;11.70;99.90
16301;DHT22;8258;51.020;4.248;2024-03-02T08:49:35;11.90;99.90
16301;DHT22;8258;51.020;4.248;2024-03-02T08:52:02;12.40;99.90
16301;DHT22;8258;51.020;4.248;2024-03-02T08:54:29;12.40;99.90
16301;DHT22;8258;51.020;4.248;2024-03-02T08:56:57;11.60;99.90
16301;DHT22;8258;51.020;4.248;2024-03-02T08:59:25;11.70;99.90
16301;DHT22;8258;51.020;4.248;2024-03-02T09:01:53;12.00;99.90
16301;DHT22;8258;51.020;4.248;2024-03-02T09:04:21;11.90;99.90
16301;DHT22;8258;51.020;4.248;2024-03-02T09:06:48;11.20;99.90
16301;DHT22;8258;51.020;4.248;2024-03-02T09:09:15;11.20;99.90
16301;DHT22;8258;51.020;4.248;2024-03-02T09:11:42;11.00;99.90
16301;DHT22;8258;51.020;4.248;2024-03-02T09:14:09;11.00;99.90
16301;DHT22;8258;51.020;4.248;2024-03-02T09:16:38;11.90;99.90
16301;DHT22;8258;51.020;4.248;2024-03-02T09:19:05;12.80;99.90
16301;DHT22;8258;51.020;4.248;2024-03-02T09:21:32;13.40;99.90
16301;DHT22;8258;51.020;4.248;2024-03-02T09:24:00;13.20;99.90
16301;DHT22;8258;51.020;4.248;2024-03-02T09:26:29;13.00;99.90
16301;DHT22;8258;51.020;4.248;2024-03-02T09:28:56;12.90;99.90
16301;DHT22;8258;51.020;4.248;2024-03-02T09:31:23;13.00;99.90
16301;DHT22;8258;51.020;4.248;2024-03-02T09:33:51;13.50;99.90
16301;DHT22;8258;51.020;4.248;2024-03-02T09:41:35;13.10;99.90
16301;DHT22;8258;51.020;4.248;2024-03-02T09:49:29;13.20;99.90
16301;DHT22;8258;51.020;4.248;2024-03-02T09:52:02;13.70;99.90
16301;DHT22;8258;51.020;4.248;2024-03-02T09:54:49;13.00;99.90
16301;DHT22;8258;51.020;4.248;2024-03-02T09:57:33;12.60;99.90
16301;DHT22;8258;51.020;4.248;2024-03-02T10:05:23;12.50;99.90
16301;DHT22;8258;51.020;4.248;2024-03-02T10:08:01;13.50;99.90
16301;DHT22;8258;51.020;4.248;2024-03-02T10:10:37;13.20;99.90
16301;DHT22;8258;51.020;4.248;2024-03-02T10:13:13;12.30;99.90
16301;DHT22;8258;51.020;4.248;2024-03-02T10:21:26;11.50;99.90
16301;DHT22;8258;51.020;4.248;2024-03-02T10:44:43;12.00;99.90
16301;DHT22;8258;51.020;4.248;2024-03-02T11:23:34;12.40;99.90
16301;DHT22;8258;51.020;4.248;2024-03-02T11:26:20;12.20;99.90
16301;DHT22;8258;51.020;4.248;2024-03-02T11:28:55;12.20;99.90
16301;DHT22;8258;51.020;4.248;2024-03-02T11:31:57;12.10;99.90
16301;DHT22;8258;51.020;4.248;2024-03-02T11:34:30;12.20;99.90
16301;DHT22;8258;51.020;4.248;2024-03-02T11:36:57;12.30;99.90
16301;DHT22;8258;51.020;4.248;2024-03-02T11:39:27;12.10;99.90
16301;DHT22;8258;51.020;4.248;2024-03-02T11:41:55;11.90;99.90
16301;DHT22;8258;51.020;4.248;2024-03-02T11:44:23;11.60;99.90
16301;DHT22;8258;51.020;4.248;2024-03-02T11:46:53;11.70;99.90
16301;DHT22;8258;51.020;4.248;2024-03-02T11:49:37;11.50;99.90
16301;DHT22;8258;51.020;4.248;2024-03-02T11:52:05;11.60;99.90
16301;DHT22;8258;51.020;4.248;2024-03-02T11:54:36;11.70;99.90
16301;DHT22;8258;51.020;4.248;2024-03-02T11:57:14;11.80;99.90
16301;DHT22;8258;51.020;4.248;2024-03-02T11:59:44;11.70;99.90
16301;DHT22;8258;51.020;4.248;2024-03-02T12:02:19;11.70;99.90
16301;DHT22;8258;51.020;4.248;2024-03-02T12:04:48;11.70;99.90
16301;DHT22;8258;51.020;4.248;2024-03-02T12:07:18;11.90;99.90
16301;DHT22;8258;51.020;4.248;2024-03-02T12:09:59;12.50;99.90
16301;DHT22;8258;51.020;4.248;2024-03-02T12:12:27;13.20;99.90
16301;DHT22;8258;51.020;4.248;2024-03-02T12:14:54;13.20;99.90
16301;DHT22;8258;51.020;4.248;2024-03-02T12:17:22;13.10;99.90
16301;DHT22;8258;51.020;4.248;2024-03-02T12:19:49;12.70;99.90
16301;DHT22;8258;51.020;4.248;2024-03-02T12:22:16;12.60;99.90
16301;DHT22;8258;51.020;4.248;2024-03-02T12:24:44;12.40;99.90
16301;DHT22;8258;51.020;4.248;2024-03-02T12:27:15;12.60;99.90
16301;DHT22;8258;51.020;4.248;2024-03-02T12:29:43;12.70;99.90
16301;DHT22;8258;51.020;4.248;2024-03-02T12:32:11;12.70;99.90
16301;DHT22;8258;51.020;4.248;2024-03-02T12:34:38;12.70;99.90
16301;DHT22;8258;51.020;4.248;2024-03-02T12:37:05;13.00;99.90
16301;DHT22;8258;51.020;4.248;2024-03-02T12:39:32;13.90;99.90
16301;DHT22;8258;51.020;4.248;2024-03-02T12:41:59;13.60;99.90
16301;DHT22;8258;51.020;4.248;2024-03-02T12:44:28;13.60;99.90
16301;DHT22;8258;51.020;4.248;2024-03-02T12:46:55;13.60;99.90
16301;DHT22;8258;51.020;4.248;2024-03-02T12:49:22;13.20;99.90
16301;DHT22;8258;51.020;4.248;2024-03-02T12:51:49;13.10;99.90
16301;DHT22;8258;51.020;4.248;2024-03-02T12:54:22;13.10;99.90
16301;DHT22;8258;51.020;4.248;2024-03-02T12:56:51;13.10;99.90
16301;DHT22;8258;51.020;4.248;2024-03-02T12:59:20;13.20;99.90
16301;DHT22;8258;51.020;4.248;2024-03-02T13:01:53;14.00;99.90
16301;DHT22;8258;51.020;4.248;2024-03-02T13:04:23;13.70;99.90
16301;DHT22;8258;51.020;4.248;2024-03-02T13:06:51;13.60;99.90
16301;DHT22;8258;51.020;4.248;2024-03-02T13:09:19;13.70;99.90
16301;DHT22;8258;51.020;4.248;2024-03-02T13:11:46;13.60;99.90
16301;DHT22;8258;51.020;4.248;2024-03-02T13:14:13;13.30;99.90
16301;DHT22;8258;51.020;4.248;2024-03-02T13:16:40;13.00;99.90
16301;DHT22;8258;51.020;4.248;2024-03-02T13:19:09;12.80;99.90
16301;DHT22;8258;51.020;4.248;2024-03-02T13:21:36;12.90;99.90
16301;DHT22;8258;51.020;4.248;2024-03-02T13:24:06;12.80;99.90
16301;DHT22;8258;51.020;4.248;2024-03-02T13:26:34;12.80;99.90
16301;DHT22;8258;51.020;4.248;2024-03-02T13:29:01;12.80;99.90
16301;DHT22;8258;51.020;4.248;2024-03-02T13:31:28;12.70;99.90
16301;DHT22;8258;51.020;4.248;2024-03-02T13:33:55;12.80;99.90
16301;DHT22;8258;51.020;4.248;2024-03-02T13:36:23;12.70;99.90
16301;DHT22;8258;51.020;4.248;2024-03-02T13:38:51;12.70;99.90
16301;DHT22;8258;51.020;4.248;2024-03-02T13:41:18;12.70;99.90
16301;DHT22;8258;51.020;4.248;2024-03-02T13:43:46;12.60;99.90
16301;DHT22;8258;51.020;4.248;2024-03-02T13:46:13;12.60;99.90
16301;DHT22;8258;51.020;4.248;2024-03-02T13:48:40;12.70;99.90
16301;DHT22;8258;51.020;4.248;2024-03-02T13:51:07;12.60;99.90
16301;DHT22;8258;51.020;4.248;2024-03-02T13:53:36;12.40;99.90
16301;DHT22;8258;51.020;4.248;2024-03-02T13:56:03;12.30;99.90
16301;DHT22;8258;51.020;4.248;2024-03-02T13:58:31;12.30;99.90
16301;DHT22;8258;51.020;4.248;2024-03-02T14:00:58;12.30;99.90
16301;DHT22;8258;51.020;4.248;2024-03-02T14:03:26;12.40;99.90
16301;DHT22;8258;51.020;4.248;2024-03-02T14:05:55;12.40;99.90
16301;DHT22;8258;51.020;4.248;2024-03-02T14:08:25;12.30;99.90
16301;DHT22;8258;51.020;4.248;2024-03-02T14:11:10;12.40;99.90
16301;DHT22;8258;51.020;4.248;2024-03-02T14:16:18;12.40;99.90
16301;DHT22;8258;51.020;4.248;2024-03-02T14:18:46;12.40;99.90
16301;DHT22;8258;51.020;4.248;2024-03-02T14:21:17;12.50;99.90
16301;DHT22;8258;51.020;4.248;2024-03-02T14:23:45;12.60;99.90
16301;DHT22;8258;51.020;4.248;2024-03-02T14:26:15;12.40;99.90
16301;DHT22;8258;51.020;4.248;2024-03-02T14:28:44;12.30;99.90
16301;DHT22;8258;51.020;4.248;2024-03-02T14:31:17;12.10;99.90
16301;DHT22;8258;51.020;4.248;2024-03-02T14:36:20;11.80;99.90
16301;DHT22;8258;51.020;4.248;2024-03-02T14:38:48;11.80;99.90
16301;DHT22;8258;51.020;4.248;2024-03-02T14:41:17;11.70;99.90
16301;DHT22;8258;51.020;4.248;2024-03-02T14:43:44;11.70;99.90
16301;DHT22;8258;51.020;4.248;2024-03-02T14:46:11;11.60;99.90
16301;DHT22;8258;51.020;4.248;2024-03-02T14:48:39;11.60;99.90
16301;DHT22;8258;51.020;4.248;2024-03-02T14:51:06;11.60;99.90
16301;DHT22;8258;51.020;4.248;2024-03-02T14:53:33;11.70;99.90
16301;DHT22;8258;51.020;4.248;2024-03-02T14:56:01;11.70;99.90
16301;DHT22;8258;51.020;4.248;2024-03-02T14:58:30;11.80;99.90
16301;DHT22;8258;51.020;4.248;2024-03-02T15:00:58;11.80;99.90
16301;DHT22;8258;51.020;4.248;2024-03-02T15:03:25;11.80;99.90
16301;DHT22;8258;51.020;4.248;2024-03-02T15:05:52;11.80;99.90
16301;DHT22;8258;51.020;4.248;2024-03-02T15:08:19;11.80;99.90
16301;DHT22;8258;51.020;4.248;2024-03-02T15:10:46;11.70;99.90
16301;DHT22;8258;51.020;4.248;2024-03-02T15:13:13;11.70;99.90
16301;DHT22;8258;51.020;4.248;2024-03-02T15:15:42;11.80;99.90
16301;DHT22;8258;51.020;4.248;2024-03-02T15:18:09;11.80;99.90
16301;DHT22;8258;51.020;4.248;2024-03-02T15:20:36;11.70;99.90
16301;DHT22;8258;51.020;4.248;2024-03-02T15:23:03;11.70;99.90
16301;DHT22;8258;51.020;4.248;2024-03-02T15:25:30;11.70;99.90
16301;DHT22;8258;51.020;4.248;2024-03-02T15:27:57;11.70;99.90
16301;DHT22;8258;51.020;4.248;2024-03-02T15:30:24;11.70;99.90
16301;DHT22;8258;51.020;4.248;2024-03-02T15:32:53;11.70;99.90
16301;DHT22;8258;51.020;4.248;2024-03-02T15:35:20;11.70;99.90
16301;DHT22;8258;51.020;4.248;2024-03-02T15:37:47;11.70;99.90
16301;DHT22;8258;51.020;4.248;2024-03-02T15:40:14;11.80;99.90
16301;DHT22;8258;51.020;4.248;2024-03-02T15:42:41;11.80;99.90
16301;DHT22;8258;51.020;4.248;2024-03-02T15:45:09;11.80;99.90
16301;DHT22;8258;51.020;4.248;2024-03-02T15:47:36;11.80;99.90
16301;DHT22;8258;51.020;4.248;2024-03-02T15:50:05;11.80;99.90
16301;DHT22;8258;51.020;4.248;2024-03-02T15:52:32;11.80;99.90
16301;DHT22;8258;51.020;4.248;2024-03-02T15:55:00;11.90;99.90
16301;DHT22;8258;51.020;4.248;2024-03-02T15:57:31;11.80;99.90
16301;DHT22;8258;51.020;4.248;2024-03-02T15:59:59;11.80;99.90
16301;DHT22;8258;51.020;4.248;2024-03-02T16:02:26;11.80;99.90
16301;DHT22;8258;51.020;4.248;2024-03-02T16:04:53;11.70;99.90
16301;DHT22;8258;51.020;4.248;2024-03-02T16:07:22;11.70;99.90
16301;DHT22;8258;51.020;4.248;2024-03-02T16:09:49;11.60;99.90
16301;DHT22;8258;51.020;4.248;2024-03-02T16:12:16;11.60;99.90
16301;DHT22;8258;51.020;4.248;2024-03-02T16:14:43;11.60;99.90
16301;DHT22;8258;51.020;4.248;2024-03-02T16:17:10;11.60;99.90
16301;DHT22;8258;51.020;4.248;2024-03-02T16:19:37;11.60;99.90
16301;DHT22;8258;51.020;4.248;2024-03-02T16:22:06;11.60;99.90
16301;DHT22;8258;51.020;4.248;2024-03-02T16:24:37;11.60;99.90
16301;DHT22;8258;51.020;4.248;2024-03-02T16:27:05;11.60;99.90
16301;DHT22;8258;51.020;4.248;2024-03-02T16:29:32;11.50;99.90
16301;DHT22;8258;51.020;4.248;2024-03-02T16:31:59;11.60;99.90
16301;DHT22;8258;51.020;4.248;2024-03-02T16:34:26;11.60;99.90
16301;DHT22;8258;51.020;4.248;2024-03-02T16:36:53;11.60;99.90
16301;DHT22;8258;51.020;4.248;2024-03-02T16:39:21;11.60;99.90
16301;DHT22;8258;51.020;4.248;2024-03-02T16:41:50;11.60;99.90
16301;DHT22;8258;51.020;4.248;2024-03-02T16:44:17;11.60;99.90
16301;DHT22;8258;51.020;4.248;2024-03-02T16:46:44;11.60;99.90
16301;DHT22;8258;51.020;4.248;2024-03-02T16:49:12;11.50;99.90
16301;DHT22;8258;51.020;4.248;2024-03-02T16:51:40;11.50;99.90
16301;DHT22;8258;51.020;4.248;2024-03-02T16:54:07;11.50;99.90
16301;DHT22;8258;51.020;4.248;2024-03-02T16:56:38;11.40;99.90
16301;DHT22;8258;51.020;4.248;2024-03-02T16:59:07;11.40;99.90
16301;DHT22;8258;51.020;4.248;2024-03-02T17:01:34;11.40;99.90
16301;DHT22;8258;51.020;4.248;2024-03-02T17:04:02;11.40;99.90
16301;DHT22;8258;51.020;4.248;2024-03-02T17:06:31;11.40;99.90
16301;DHT22;8258;51.020;4.248;2024-03-02T17:08:58;11.40;99.90
16301;DHT22;8258;51.020;4.248;2024-03-02T17:11:25;11.40;99.90
16301;DHT22;8258;51.020;4.248;2024-03-02T17:13:52;11.30;99.90
16301;DHT22;8258;51.020;4.248;2024-03-02T17:16:24;11.30;99.90
16301;DHT22;8258;51.020;4.248;2024-03-02T17:18:51;11.20;99.90
16301;DHT22;8258;51.020;4.248;2024-03-02T17:21:19;11.20;99.90
16301;DHT22;8258;51.020;4.248;2024-03-02T17:23:46;11.10;99.90
16301;DHT22;8258;51.020;4.248;2024-03-02T17:26:13;11.10;99.90
16301;DHT22;8258;51.020;4.248;2024-03-02T17:28:40;11.10;99.90
16301;DHT22;8258;51.020;4.248;2024-03-02T17:31:11;11.00;99.90
16301;DHT22;8258;51.020;4.248;2024-03-02T17:33:39;11.00;99.90
16301;DHT22;8258;51.020;4.248;2024-03-02T17:36:07;10.90;99.90
16301;DHT22;8258;51.020;4.248;2024-03-02T17:38:34;10.90;99.90
16301;DHT22;8258;51.020;4.248;2024-03-02T17:41:01;10.90;99.90
16301;DHT22;8258;51.020;4.248;2024-03-02T17:43:29;10.90;99.90
16301;DHT22;8258;51.020;4.248;2024-03-02T17:45:56;10.90;99.90
16301;DHT22;8258;51.020;4.248;2024-03-02T17:48:25;11.00;99.90
16301;DHT22;8258;51.020;4.248;2024-03-02T17:50:53;10.90;99.90
16301;DHT22;8258;51.020;4.248;2024-03-02T17:53:20;10.90;99.90
16301;DHT22;8258;51.020;4.248;2024-03-02T17:55:47;11.00;99.90
16301;DHT22;8258;51.020;4.248;2024-03-02T17:58:14;11.10;99.90
16301;DHT22;8258;51.020;4.248;2024-03-02T18:00:42;11.00;99.90
16301;DHT22;8258;51.020;4.248;2024-03-02T18:03:10;11.00;99.90
16301;DHT22;8258;51.020;4.248;2024-03-02T18:05:40;11.00;99.90
16301;DHT22;8258;51.020;4.248;2024-03-02T18:08:12;11.10;99.90
16301;DHT22;8258;51.020;4.248;2024-03-02T18:10:41;11.10;99.90
16301;DHT22;8258;51.020;4.248;2024-03-02T18:13:11;11.10;99.90
16301;DHT22;8258;51.020;4.248;2024-03-02T18:15:41;11.10;99.90
16301;DHT22;8258;51.020;4.248;2024-03-02T18:18:19;11.00;99.90
16301;DHT22;8258;51.020;4.248;2024-03-02T18:20:52;11.00;99.90
16301;DHT22;8258;51.020;4.248;2024-03-02T18:23:32;10.90;99.90
16301;DHT22;8258;51.020;4.248;2024-03-02T18:26:06;10.90;99.90
16301;DHT22;8258;51.020;4.248;2024-03-02T18:28:40;10.80;99.90
16301;DHT22;8258;51.020;4.248;2024-03-02T18:31:10;10.70;99.90
16301;DHT22;8258;51.020;4.248;2024-03-02T18:33:44;10.60;99.90
16301;DHT22;8258;51.020;4.248;2024-03-02T18:36:13;10.60;99.90
16301;DHT22;8258;51.020;4.248;2024-03-02T18:38:45;10.60;99.90
16301;DHT22;8258;51.020;4.248;2024-03-02T18:41:14;10.60;99.90
16301;DHT22;8258;51.020;4.248;2024-03-02T18:43:49;10.60;99.90
16301;DHT22;8258;51.020;4.248;2024-03-02T18:46:20;10.60;99.90
16301;DHT22;8258;51.020;4.248;2024-03-02T18:48:46;10.50;99.90
16301;DHT22;8258;51.020;4.248;2024-03-02T18:51:14;10.50;99.90
16301;DHT22;8258;51.020;4.248;2024-03-02T18:53:41;10.50;99.90
16301;DHT22;8258;51.020;4.248;2024-03-02T18:56:11;10.50;99.90
16301;DHT22;8258;51.020;4.248;2024-03-02T18:58:38;10.60;99.90
16301;DHT22;8258;51.020;4.248;2024-03-02T19:01:05;10.60;99.90
16301;DHT22;8258;51.020;4.248;2024-03-02T19:03:32;10.60;99.90
16301;DHT22;8258;51.020;4.248;2024-03-02T19:05:59;10.60;99.90
16301;DHT22;8258;51.020;4.248;2024-03-02T19:08:28;10.60;99.90
16301;DHT22;8258;51.020;4.248;2024-03-02T19:11:02;10.60;99.90
16301;DHT22;8258;51.020;4.248;2024-03-02T19:13:32;10.50;99.90
16301;DHT22;8258;51.020;4.248;2024-03-02T19:15:59;10.40;99.90
16301;DHT22;8258;51.020;4.248;2024-03-02T19:18:26;10.30;99.90
16301;DHT22;8258;51.020;4.248;2024-03-02T19:20:53;10.30;99.90
16301;DHT22;8258;51.020;4.248;2024-03-02T19:23:20;10.20;99.90
16301;DHT22;8258;51.020;4.248;2024-03-02T19:25:47;10.10;99.90
16301;DHT22;8258;51.020;4.248;2024-03-02T19:28:14;10.10;99.90
16301;DHT22;8258;51.020;4.248;2024-03-02T19:30:43;10.10;99.90
16301;DHT22;8258;51.020;4.248;2024-03-02T19:33:10;10.10;99.90
16301;DHT22;8258;51.020;4.248;2024-03-02T19:35:39;10.10;99.90
16301;DHT22;8258;51.020;4.248;2024-03-02T19:38:06;10.10;99.90
16301;DHT22;8258;51.020;4.248;2024-03-02T19:40:34;10.10;99.90
16301;DHT22;8258;51.020;4.248;2024-03-02T19:43:01;10.20;99.90
16301;DHT22;8258;51.020;4.248;2024-03-02T19:45:29;10.20;99.90
16301;DHT22;8258;51.020;4.248;2024-03-02T19:47:57;10.20;99.90
16301;DHT22;8258;51.020;4.248;2024-03-02T19:50:24;10.20;99.90
16301;DHT22;8258;51.020;4.248;2024-03-02T19:52:51;10.20;99.90
16301;DHT22;8258;51.020;4.248;2024-03-02T19:55:22;10.20;99.90
16301;DHT22;8258;51.020;4.248;2024-03-02T19:57:56;10.20;99.90
16301;DHT22;8258;51.020;4.248;2024-03-02T20:00:27;10.20;99.90
16301;DHT22;8258;51.020;4.248;2024-03-02T20:02:59;10.20;99.90
16301;DHT22;8258;51.020;4.248;2024-03-02T20:05:28;10.20;99.90
16301;DHT22;8258;51.020;4.248;2024-03-02T20:08:02;10.20;99.90
16301;DHT22;8258;51.020;4.248;2024-03-02T20:13:11;10.10;99.90
16301;DHT22;8258;51.020;4.248;2024-03-02T20:15:39;10.00;99.90
16301;DHT22;8258;51.020;4.248;2024-03-02T20:18:17;10.00;99.90
16301;DHT22;8258;51.020;4.248;2024-03-02T20:20:54;10.00;99.90
16301;DHT22;8258;51.020;4.248;2024-03-02T20:23:24;10.00;99.90
16301;DHT22;8258;51.020;4.248;2024-03-02T20:25:52;10.00;99.90
16301;DHT22;8258;51.020;4.248;2024-03-02T20:28:20;10.00;99.90
16301;DHT22;8258;51.020;4.248;2024-03-02T20:30:47;10.00;99.90
16301;DHT22;8258;51.020;4.248;2024-03-02T20:33:14;10.00;99.90
16301;DHT22;8258;51.020;4.248;2024-03-02T20:35:43;10.00;99.90
16301;DHT22;8258;51.020;4.248;2024-03-02T20:38:09;10.00;99.90
16301;DHT22;8258;51.020;4.248;2024-03-02T20:40:36;10.00;99.90
16301;DHT22;8258;51.020;4.248;2024-03-02T20:43:03;10.00;99.90
16301;DHT22;8258;51.020;4.248;2024-03-02T20:45:31;10.00;99.90
16301;DHT22;8258;51.020;4.248;2024-03-02T20:47:59;10.00;99.90
16301;DHT22;8258;51.020;4.248;2024-03-02T20:50:26;10.00;99.90
16301;DHT22;8258;51.020;4.248;2024-03-02T20:52:55;10.00;99.90
16301;DHT22;8258;51.020;4.248;2024-03-02T20:55:26;10.10;99.90
16301;DHT22;8258;51.020;4.248;2024-03-02T20:57:53;10.10;99.90
16301;DHT22;8258;51.020;4.248;2024-03-02T21:00:20;10.20;99.90
16301;DHT22;8258;51.020;4.248;2024-03-02T21:02:47;10.20;99.90
16301;DHT22;8258;51.020;4.248;2024-03-02T21:05:14;10.20;99.90
16301;DHT22;8258;51.020;4.248;2024-03-02T21:07:41;10.20;99.90
16301;DHT22;8258;51.020;4.248;2024-03-02T21:10:10;10.20;99.90
16301;DHT22;8258;51.020;4.248;2024-03-02T21:12:37;10.10;99.90
16301;DHT22;8258;51.020;4.248;2024-03-02T21:15:06;10.10;99.90
16301;DHT22;8258;51.020;4.248;2024-03-02T21:17:33;10.10;99.90
16301;DHT22;8258;51.020;4.248;2024-03-02T21:20:00;10.20;99.90
16301;DHT22;8258;51.020;4.248;2024-03-02T21:22:32;10.20;99.90
16301;DHT22;8258;51.020;4.248;2024-03-02T21:24:59;10.20;99.90
16301;DHT22;8258;51.020;4.248;2024-03-02T21:27:28;10.20;99.90
16301;DHT22;8258;51.020;4.248;2024-03-02T21:29:55;10.20;99.90
16301;DHT22;8258;51.020;4.248;2024-03-02T21:32:22;10.20;99.90
16301;DHT22;8258;51.020;4.248;2024-03-02T21:34:49;10.20;99.90
16301;DHT22;8258;51.020;4.248;2024-03-02T21:37:19;10.20;99.90
16301;DHT22;8258;51.020;4.248;2024-03-02T21:39:49;10.20;99.90
16301;DHT22;8258;51.020;4.248;2024-03-02T21:42:18;10.20;99.90
16301;DHT22;8258;51.020;4.248;2024-03-02T21:44:54;10.20;99.90
16301;DHT22;8258;51.020;4.248;2024-03-02T21:52:33;10.20;99.90
16301;DHT22;8258;51.020;4.248;2024-03-02T21:57:36;10.20;99.90
16301;DHT22;8258;51.020;4.248;2024-03-02T22:00:14;10.20;99.90
16301;DHT22;8258;51.020;4.248;2024-03-02T22:02:43;10.10;99.90
16301;DHT22;8258;51.020;4.248;2024-03-02T22:05:12;10.20;99.90
16301;DHT22;8258;51.020;4.248;2024-03-02T22:07:42;10.20;99.90
16301;DHT22;8258;51.020;4.248;2024-03-02T22:10:20;10.20;99.90
16301;DHT22;8258;51.020;4.248;2024-03-02T22:12:50;10.20;99.90
16301;DHT22;8258;51.020;4.248;2024-03-02T22:15:19;10.20;99.90
16301;DHT22;8258;51.020;4.248;2024-03-02T22:17:46;10.00;99.90
16301;DHT22;8258;51.020;4.248;2024-03-02T22:20:14;9.90;99.90
16301;DHT22;8258;51.020;4.248;2024-03-02T22:22:41;9.80;99.90
16301;DHT22;8258;51.020;4.248;2024-03-02T22:25:09;9.70;99.90
16301;DHT22;8258;51.020;4.248;2024-03-02T22:27:36;9.70;99.90
16301;DHT22;8258;51.020;4.248;2024-03-02T22:30:04;9.70;99.90
16301;DHT22;8258;51.020;4.248;2024-03-02T22:32:32;9.70;99.90
16301;DHT22;8258;51.020;4.248;2024-03-02T22:35:00;9.80;99.90
16301;DHT22;8258;51.020;4.248;2024-03-02T22:37:27;9.80;99.90
16301;DHT22;8258;51.020;4.248;2024-03-02T22:39:54;9.70;99.90
16301;DHT22;8258;51.020;4.248;2024-03-02T22:42:21;9.70;99.90
16301;DHT22;8258;51.020;4.248;2024-03-02T22:44:48;9.70;99.90
16301;DHT22;8258;51.020;4.248;2024-03-02T22:47:15;9.80;99.90
16301;DHT22;8258;51.020;4.248;2024-03-02T22:49:44;9.80;99.90
16301;DHT22;8258;51.020;4.248;2024-03-02T22:52:11;9.90;99.90
16301;DHT22;8258;51.020;4.248;2024-03-02T22:54:38;9.80;99.90
16301;DHT22;8258;51.020;4.248;2024-03-02T22:57:05;9.90;99.90
16301;DHT22;8258;51.020;4.248;2024-03-02T22:59:32;9.90;99.90
16301;DHT22;8258;51.020;4.248;2024-03-02T23:02:00;9.90;99.90
16301;DHT22;8258;51.020;4.248;2024-03-02T23:04:27;10.00;99.90
16301;DHT22;8258;51.020;4.248;2024-03-02T23:06:56;10.00;99.90
16301;DHT22;8258;51.020;4.248;2024-03-02T23:09:23;10.00;99.90
16301;DHT22;8258;51.020;4.248;2024-03-02T23:11:50;10.10;99.90
16301;DHT22;8258;51.020;4.248;2024-03-02T23:14:17;10.10;99.90
16301;DHT22;8258;51.020;4.248;2024-03-02T23:16:44;10.10;99.90
16301;DHT22;8258;51.020;4.248;2024-03-02T23:19:11;10.20;99.90
16301;DHT22;8258;51.020;4.248;2024-03-02T23:21:39;10.30;99.90
16301;DHT22;8258;51.020;4.248;2024-03-02T23:24:10;10.30;99.90
16301;DHT22;8258;51.020;4.248;2024-03-02T23:26:38;10.30;99.90
16301;DHT22;8258;51.020;4.248;2024-03-02T23:29:05;10.30;99.90
16301;DHT22;8258;51.020;4.248;2024-03-02T23:31:32;10.30;99.90
16301;DHT22;8258;51.020;4.248;2024-03-02T23:33:59;10.40;99.90
16301;DHT22;8258;51.020;4.248;2024-03-02T23:36:29;10.40;99.90
16301;DHT22;8258;51.020;4.248;2024-03-02T23:38:56;10.40;99.90
16301;DHT22;8258;51.020;4.248;2024-03-02T23:41:27;10.40;99.90
16301;DHT22;8258;51.020;4.248;2024-03-02T23:43:54;10.40;99.90
16301;DHT22;8258;51.020;4.248;2024-03-02T23:46:23;10.40;99.90
16301;DHT22;8258;51.020;4.248;2024-03-02T23:48:50;10.40;99.90
16301;DHT22;8258;51.020;4.248;2024-03-02T23:51:17;10.30;99.90
16301;DHT22;8258;51.020;4.248;2024-03-02T23:53:44;10.20;99.90
16301;DHT22;8258;51.020;4.248;2024-03-02T23:56:14;10.20;99.90
16301;DHT22;8258;51.020;4.248;2024-03-02T23:58:55;10.10;99.90
